createdAt,value
2018-10-19T00:00:23.879Z,6.77
2018-10-19T00:02:53.337Z,7.20
2018-10-19T00:05:22.545Z,8.23
2018-10-19T00:07:55.626Z,8.48
2018-10-19T00:10:24.841Z,8.23
2018-10-19T00:12:54.147Z,7.70
2018-10-19T00:15:23.343Z,8.00
2018-10-19T00:17:52.888Z,8.35
2018-10-19T00:20:22.110Z,8.80
2018-10-19T00:22:51.308Z,9.47
2018-10-19T00:25:20.627Z,9.10
2018-10-19T00:27:49.985Z,8.45
2018-10-19T00:30:19.594Z,8.60
2018-10-19T00:32:48.836Z,8.60
2018-10-19T00:35:19.023Z,9.03
2018-10-19T00:37:48.216Z,10.20
2018-10-19T00:40:18.804Z,9.10
2018-10-19T00:42:48.023Z,9.80
2018-10-19T00:45:17.811Z,9.67
2018-10-19T00:47:47.341Z,8.83
2018-10-19T00:50:17.942Z,10.37
2018-10-19T00:52:47.139Z,10.20
2018-10-19T00:55:17.162Z,10.17
2018-10-19T00:57:47.254Z,10.48
2018-10-19T01:00:18.387Z,11.57
2018-10-19T01:02:47.596Z,11.30
2018-10-19T01:05:18.010Z,11.60
2018-10-19T01:07:47.271Z,10.73
2018-10-19T01:10:21.124Z,12.80
2018-10-19T01:12:50.651Z,12.30
2018-10-19T01:15:19.967Z,11.07
2018-10-19T01:17:49.356Z,12.40
2018-10-19T01:20:18.824Z,12.90
2018-10-19T01:22:48.042Z,12.67
2018-10-19T01:25:19.280Z,11.17
2018-10-19T01:27:48.527Z,12.33
2018-10-19T01:30:18.254Z,12.90
2018-10-19T01:32:47.477Z,12.93
2018-10-19T01:35:17.487Z,13.50
2018-10-19T01:37:46.667Z,13.07
2018-10-19T01:40:16.547Z,13.10
2018-10-19T01:42:45.764Z,13.47
2018-10-19T01:45:16.009Z,12.60
2018-10-19T01:47:45.294Z,13.20
2018-10-19T01:50:16.443Z,13.63
2018-10-19T01:52:45.696Z,14.73
2018-10-19T01:55:15.286Z,12.80
2018-10-19T01:57:44.499Z,13.90
2018-10-19T02:00:15.201Z,14.30
2018-10-19T02:02:44.513Z,14.50
2018-10-19T02:05:15.273Z,14.37
2018-10-19T02:07:44.567Z,12.93
2018-10-19T02:10:15.385Z,13.10
2018-10-19T02:12:44.606Z,12.93
2018-10-19T02:15:15.705Z,14.20
2018-10-19T02:17:44.920Z,14.50
2018-10-19T02:20:14.159Z,14.40
2018-10-19T02:22:43.369Z,14.37
2018-10-19T02:25:12.963Z,14.20
2018-10-19T02:27:42.158Z,13.50
2018-10-19T02:30:12.108Z,14.28
2018-10-19T02:32:41.358Z,14.40
2018-10-19T02:35:10.740Z,14.28
2018-10-19T02:37:39.956Z,15.30
2018-10-19T02:40:09.764Z,13.93
2018-10-19T02:42:39.149Z,14.40
2018-10-19T02:45:09.366Z,16.20
2018-10-19T02:47:38.586Z,14.53
2018-10-19T02:50:08.445Z,14.37
2018-10-19T02:52:38.171Z,14.00
2018-10-19T02:55:08.134Z,16.57
2018-10-19T02:57:37.340Z,14.13
2018-10-19T03:00:10.105Z,15.40
2018-10-19T03:02:39.500Z,13.40
2018-10-19T03:05:15.004Z,13.57
2018-10-19T03:07:44.191Z,14.05
2018-10-19T03:10:13.800Z,14.47
2018-10-19T03:12:42.963Z,15.40
2018-10-19T03:15:12.800Z,14.13
2018-10-19T03:17:41.971Z,14.27
2018-10-19T03:20:11.223Z,14.80
2018-10-19T03:22:40.426Z,14.70
2018-10-19T03:25:10.247Z,14.13
2018-10-19T03:27:39.423Z,15.10
2018-10-19T03:30:09.580Z,13.23
2018-10-19T03:32:38.773Z,14.70
2018-10-19T03:35:08.159Z,14.40
2018-10-19T03:37:37.291Z,13.17
2018-10-19T03:40:06.528Z,14.13
2018-10-19T03:42:35.711Z,13.80
2018-10-19T03:45:05.153Z,15.13
2018-10-19T03:47:34.289Z,14.77
2018-10-19T03:50:03.639Z,14.90
2018-10-19T03:52:32.835Z,15.77
2018-10-19T03:55:04.875Z,16.23
2018-10-19T03:57:34.067Z,15.10
2018-10-19T04:00:03.476Z,14.73
2018-10-19T04:02:32.675Z,15.60
2018-10-19T04:05:02.025Z,15.97
2018-10-19T04:07:31.152Z,15.63
2018-10-19T04:10:00.367Z,14.97
2018-10-19T04:12:29.600Z,15.20
2018-10-19T04:14:58.825Z,15.60
2018-10-19T04:17:28.054Z,15.90
2018-10-19T04:19:57.299Z,15.77
2018-10-19T04:22:26.630Z,16.00
2018-10-19T04:24:55.872Z,14.80
2018-10-19T04:27:25.114Z,16.03
2018-10-19T04:29:54.247Z,16.10
2018-10-19T04:32:23.517Z,15.85
2018-10-19T04:34:52.828Z,17.23
2018-10-19T04:37:21.992Z,16.23
2018-10-19T04:39:51.366Z,16.07
2018-10-19T04:42:20.922Z,14.27
2018-10-19T04:44:50.026Z,16.70
2018-10-19T04:47:19.239Z,16.17
2018-10-19T04:49:48.441Z,16.50
2018-10-19T04:52:18.472Z,17.20
2018-10-19T04:54:47.676Z,17.60
2018-10-19T04:57:16.967Z,16.10
2018-10-19T04:59:46.096Z,16.23
2018-10-19T05:02:16.052Z,16.50
2018-10-19T05:04:45.283Z,17.00
2018-10-19T05:07:15.051Z,18.57
2018-10-19T05:09:44.278Z,16.70
2018-10-19T05:12:14.074Z,17.90
2018-10-19T05:14:43.236Z,16.47
2018-10-19T05:17:12.901Z,18.27
2018-10-19T05:19:42.119Z,17.47
2018-10-19T05:22:11.330Z,16.30
2018-10-19T05:24:40.530Z,18.80
2018-10-19T05:27:09.756Z,17.10
2018-10-19T05:29:39.016Z,17.17
2018-10-19T05:32:08.373Z,17.47
2018-10-19T05:34:37.579Z,18.00
2018-10-19T05:37:06.818Z,18.33
2018-10-19T05:39:36.000Z,18.37
2018-10-19T05:42:05.389Z,18.32
2018-10-19T05:44:34.609Z,18.63
2018-10-19T05:47:04.053Z,17.23
2018-10-19T05:49:33.167Z,17.25
2018-10-19T05:52:02.522Z,19.03
2018-10-19T05:54:31.691Z,18.00
2018-10-19T05:57:00.893Z,17.77
2018-10-19T05:59:30.072Z,18.53
2018-10-19T06:01:59.400Z,19.90
2018-10-19T06:04:28.535Z,18.50
2018-10-19T06:06:57.726Z,19.07
2018-10-19T06:09:26.969Z,18.30
2018-10-19T06:11:56.188Z,18.60
2018-10-19T06:14:25.415Z,18.47
2018-10-19T06:16:54.667Z,19.50
2018-10-19T06:19:23.872Z,18.33
2018-10-19T06:21:53.081Z,17.03
2018-10-19T06:24:22.288Z,17.93
2018-10-19T06:26:51.518Z,18.25
2018-10-19T06:29:20.710Z,17.93
2018-10-19T06:31:49.913Z,16.70
2018-10-19T06:34:19.071Z,17.43
2018-10-19T06:36:48.269Z,17.93
2018-10-19T06:39:17.440Z,17.20
2018-10-19T06:41:46.631Z,17.03
2018-10-19T06:44:15.937Z,16.17
2018-10-19T06:46:45.185Z,16.57
2018-10-19T06:49:14.346Z,16.27
2018-10-19T06:51:43.650Z,15.90
2018-10-19T06:54:12.908Z,16.52
2018-10-19T06:56:42.220Z,15.37
2018-10-19T06:59:11.543Z,16.00
2018-10-19T07:01:40.839Z,16.17
2018-10-19T07:04:10.311Z,15.70
2018-10-19T07:06:39.503Z,17.35
2018-10-19T07:09:09.255Z,15.67
2018-10-19T07:11:38.464Z,17.30
2018-10-19T07:14:07.778Z,15.87
2018-10-19T07:16:37.109Z,16.77
2018-10-19T07:19:06.500Z,17.63
2018-10-19T07:21:35.643Z,17.00
2018-10-19T07:24:05.041Z,14.60
2018-10-19T07:26:34.261Z,16.77
2018-10-19T07:29:03.482Z,17.67
2018-10-19T07:31:32.671Z,16.93
2018-10-19T07:34:01.896Z,15.50
2018-10-19T07:36:31.147Z,17.60
2018-10-19T07:39:00.421Z,16.50
2018-10-19T07:41:29.617Z,17.13
2018-10-19T07:43:58.818Z,18.10
2018-10-19T07:46:31.025Z,17.60
2018-10-19T07:49:00.319Z,16.67
2018-10-19T07:51:29.607Z,17.50
2018-10-19T07:53:58.828Z,17.43
2018-10-19T07:56:28.040Z,16.87
2018-10-19T07:58:57.286Z,16.40
2018-10-19T08:01:26.482Z,17.37
2018-10-19T08:03:55.749Z,19.90
2018-10-19T08:06:24.975Z,17.30
2018-10-19T08:08:54.167Z,17.80
2018-10-19T08:11:23.427Z,17.33
2018-10-19T08:13:52.722Z,19.30
2018-10-19T08:16:21.905Z,17.93
2018-10-19T08:18:51.101Z,18.57
2018-10-19T08:21:20.344Z,17.23
2018-10-19T08:23:49.547Z,16.93
2018-10-19T08:26:18.834Z,17.90
2018-10-19T08:28:47.953Z,16.57
2018-10-19T08:31:17.191Z,17.47
2018-10-19T08:33:46.485Z,17.83
2018-10-19T08:36:15.760Z,17.02
2018-10-19T08:38:45.044Z,17.83
2018-10-19T08:41:14.333Z,23.30
2018-10-19T08:43:43.448Z,18.30
2018-10-19T08:46:18.049Z,19.20
2018-10-19T08:48:47.311Z,18.13
2018-10-19T08:51:16.593Z,20.90
2018-10-19T08:53:45.720Z,20.20
2018-10-19T08:56:14.963Z,16.20
2018-10-19T08:58:44.218Z,17.47
2018-10-19T09:01:13.503Z,18.62
2018-10-19T09:03:42.717Z,18.43
2018-10-19T09:06:12.213Z,16.40
2018-10-19T09:08:41.283Z,17.40
2018-10-19T09:11:10.912Z,17.97
2018-10-19T09:13:40.434Z,18.27
2018-10-19T09:16:10.332Z,18.00
2018-10-19T09:18:39.690Z,15.37
2018-10-19T09:21:09.290Z,18.33
2018-10-19T09:23:38.606Z,17.77
2018-10-19T09:26:07.793Z,17.93
2018-10-19T09:28:36.975Z,16.67
2018-10-19T09:31:06.295Z,16.30
2018-10-19T09:33:35.523Z,18.00
2018-10-19T09:36:04.989Z,17.60
2018-10-19T09:38:34.112Z,16.70
2018-10-19T09:41:03.437Z,17.03
2018-10-19T09:43:32.706Z,17.43
2018-10-19T09:46:01.990Z,16.37
2018-10-19T09:48:31.203Z,16.67
2018-10-19T09:51:00.416Z,17.23
2018-10-19T09:53:29.653Z,17.40
2018-10-19T09:55:58.859Z,17.67
2018-10-19T09:58:28.041Z,16.53
2018-10-19T10:00:59.125Z,18.90
2018-10-19T10:03:29.720Z,18.33
2018-10-19T10:05:59.999Z,16.73
2018-10-19T10:08:30.235Z,16.80
2018-10-19T10:11:00.664Z,16.60
2018-10-19T10:13:30.964Z,18.50
2018-10-19T10:16:00.158Z,17.60
2018-10-19T10:18:29.375Z,17.30
2018-10-19T10:20:58.539Z,18.03
2018-10-19T10:23:27.745Z,19.40
2018-10-19T10:25:57.024Z,17.43
2018-10-19T10:28:26.249Z,18.40
2018-10-19T10:30:55.507Z,17.20
2018-10-19T10:33:24.685Z,16.23
2018-10-19T10:35:53.864Z,17.23
2018-10-19T10:38:23.136Z,17.00
2018-10-19T10:40:52.330Z,15.00
2018-10-19T10:43:21.863Z,16.35
2018-10-19T10:45:51.109Z,14.90
2018-10-19T10:48:20.297Z,16.23
2018-10-19T10:50:49.544Z,15.80
2018-10-19T10:53:19.110Z,14.83
2018-10-19T10:55:48.406Z,16.77
2018-10-19T10:58:17.772Z,16.20
2018-10-19T11:00:46.895Z,14.70
2018-10-19T11:03:16.131Z,15.90
2018-10-19T11:05:45.331Z,15.20
2018-10-19T11:08:14.512Z,16.37
2018-10-19T11:10:43.771Z,16.50
2018-10-19T11:13:12.983Z,15.20
2018-10-19T11:15:42.113Z,15.63
2018-10-19T11:18:11.336Z,15.83
2018-10-19T11:20:40.551Z,15.40
2018-10-19T11:23:10.143Z,16.17
2018-10-19T11:25:39.342Z,15.13
2018-10-19T11:28:08.960Z,16.35
2018-10-19T11:30:38.272Z,16.47
2018-10-19T11:33:07.407Z,16.40
2018-10-19T11:35:36.664Z,16.40
2018-10-19T11:38:06.015Z,15.90
2018-10-19T11:40:37.290Z,15.90
2018-10-19T11:43:06.569Z,17.67
2018-10-19T11:45:36.679Z,15.70
2018-10-19T11:48:05.904Z,16.03
2018-10-19T11:50:35.199Z,16.43
2018-10-19T11:53:04.507Z,16.77
2018-10-19T11:55:33.874Z,16.00
2018-10-19T11:58:03.239Z,16.33
2018-10-19T12:00:32.503Z,17.03
2018-10-19T12:03:01.735Z,16.13
2018-10-19T12:05:31.001Z,16.27
2018-10-19T12:08:00.962Z,16.03
2018-10-19T12:10:30.190Z,19.23
2018-10-19T12:12:59.370Z,16.13
2018-10-19T12:15:28.561Z,16.60
2018-10-19T12:17:57.786Z,17.00
2018-10-19T12:20:27.007Z,17.00
2018-10-19T12:22:56.173Z,15.73
2018-10-19T12:25:25.536Z,16.82
2018-10-19T12:27:54.797Z,13.80
2018-10-19T12:30:24.054Z,16.37
2018-10-19T12:32:53.307Z,14.50
2018-10-19T12:35:22.734Z,16.65
2018-10-19T12:37:51.907Z,15.87
2018-10-19T12:40:21.112Z,16.67
2018-10-19T12:42:50.436Z,16.07
2018-10-19T12:47:31.788Z,17.10
2018-10-19T12:50:01.072Z,15.80
2018-10-19T12:52:30.426Z,16.17
2018-10-19T12:54:59.771Z,17.03
2018-10-19T12:57:29.015Z,15.57
2018-10-19T12:59:58.203Z,17.10
2018-10-19T13:02:27.481Z,16.43
2018-10-19T13:04:56.670Z,17.60
2018-10-19T13:07:25.961Z,15.63
2018-10-19T13:09:55.169Z,15.30
2018-10-19T13:12:24.421Z,15.07
2018-10-19T13:14:53.668Z,16.23
2018-10-19T13:17:22.850Z,15.20
2018-10-19T13:19:52.071Z,16.57
2018-10-19T13:22:21.276Z,15.10
2018-10-19T13:24:50.447Z,15.47
2018-10-19T13:27:19.640Z,16.90
2018-10-19T13:29:48.876Z,17.53
2018-10-19T13:32:18.113Z,15.17
2018-10-19T13:34:47.351Z,14.95
2018-10-19T13:37:16.739Z,16.70
2018-10-19T13:39:45.978Z,18.23
2018-10-19T13:42:15.185Z,17.07
2018-10-19T13:44:44.381Z,17.53
2018-10-19T13:47:13.740Z,16.33
2018-10-19T13:49:42.880Z,18.13
2018-10-19T13:52:14.212Z,16.93
2018-10-19T13:54:45.432Z,16.97
2018-10-19T13:57:15.891Z,18.55
2018-10-19T13:59:45.070Z,17.43
2018-10-19T14:02:14.355Z,20.47
2018-10-19T14:04:43.691Z,18.87
2018-10-19T14:07:12.909Z,20.37
2018-10-19T14:09:43.277Z,17.87
2018-10-19T14:12:12.491Z,18.50
2018-10-19T14:14:41.716Z,18.30
2018-10-19T14:17:11.237Z,19.17
2018-10-19T14:19:40.524Z,17.90
2018-10-19T14:22:09.758Z,19.27
2018-10-19T14:24:39.104Z,18.53
2018-10-19T14:27:08.749Z,20.05
2018-10-19T14:29:38.785Z,17.53
2018-10-19T14:32:08.195Z,19.80
2018-10-19T14:34:37.412Z,17.87
2018-10-19T14:37:06.776Z,18.10
2018-10-19T14:39:36.011Z,18.27
2018-10-19T14:42:05.416Z,19.77
2018-10-19T14:44:34.576Z,18.43
2018-10-19T14:47:03.898Z,19.83
2018-10-19T14:49:33.499Z,19.27
2018-10-19T14:52:03.904Z,19.35
2018-10-19T14:54:33.179Z,19.07
2018-10-19T14:57:02.639Z,18.67
2018-10-19T14:59:31.821Z,19.33
2018-10-19T15:02:01.083Z,20.90
2018-10-19T15:04:30.458Z,19.67
2018-10-19T15:06:59.990Z,20.87
2018-10-19T15:09:29.256Z,20.20
2018-10-19T15:11:58.504Z,20.53
2018-10-19T15:14:27.646Z,20.00
2018-10-19T15:16:56.926Z,22.73
2018-10-19T15:19:26.157Z,20.57
2018-10-19T15:21:55.383Z,20.47
2018-10-19T15:24:24.582Z,20.30
2018-10-19T15:26:54.071Z,21.65
2018-10-19T15:29:23.360Z,20.90
2018-10-19T15:31:52.685Z,18.47
2018-10-19T15:34:21.895Z,21.37
2018-10-19T15:36:54.044Z,21.23
2018-10-19T15:39:23.249Z,21.63
2018-10-19T15:41:52.483Z,21.03
2018-10-19T15:44:21.679Z,22.77
2018-10-19T15:46:51.297Z,21.37
2018-10-19T15:49:20.697Z,21.53
2018-10-19T15:51:49.914Z,22.73
2018-10-19T15:54:19.103Z,22.07
2018-10-19T15:56:48.390Z,23.10
2018-10-19T15:59:17.517Z,21.80
2018-10-19T16:01:46.751Z,22.20
2018-10-19T16:04:16.015Z,22.75
2018-10-19T16:06:45.197Z,22.93
2018-10-19T16:09:15.289Z,21.67
2018-10-19T16:11:44.680Z,21.40
2018-10-19T16:14:13.895Z,21.90
2018-10-19T16:16:43.066Z,23.30
2018-10-19T16:19:12.310Z,22.83
2018-10-19T16:21:41.553Z,23.23
2018-10-19T16:24:11.323Z,24.23
2018-10-19T16:26:40.654Z,23.30
2018-10-19T16:29:10.151Z,23.10
2018-10-19T16:31:39.369Z,21.87
2018-10-19T16:34:08.875Z,25.27
2018-10-19T16:36:38.210Z,24.80
2018-10-19T16:39:09.117Z,24.70
2018-10-19T16:41:45.643Z,22.80
2018-10-19T16:44:16.414Z,24.83
2018-10-19T16:46:45.762Z,25.13
2018-10-19T16:49:14.982Z,23.03
2018-10-19T16:51:44.225Z,25.00
2018-10-19T16:54:13.791Z,24.80
2018-10-19T16:56:42.993Z,24.50
2018-10-19T16:59:12.791Z,25.30
2018-10-19T17:01:42.096Z,24.07
2018-10-19T17:04:11.319Z,25.63
2018-10-19T17:06:40.495Z,25.17
2018-10-19T17:09:11.182Z,24.40
2018-10-19T17:11:40.717Z,24.03
2018-10-19T17:14:10.375Z,24.33
2018-10-19T17:16:39.581Z,24.17
2018-10-19T17:19:09.357Z,26.70
2018-10-19T17:21:38.483Z,27.10
2018-10-19T17:24:07.691Z,24.60
2018-10-19T17:26:37.065Z,26.40
2018-10-19T17:29:06.332Z,24.93
2018-10-19T17:31:35.594Z,25.92
2018-10-19T17:34:04.966Z,25.77
2018-10-19T17:36:34.253Z,24.33
2018-10-19T17:39:03.677Z,24.30
2018-10-19T17:41:33.016Z,24.13
2018-10-19T17:44:02.376Z,22.07
2018-10-19T17:46:31.607Z,21.57
2018-10-19T17:49:00.806Z,22.97
2018-10-19T17:51:30.055Z,22.23
2018-10-19T17:53:59.317Z,22.73
2018-10-19T17:56:28.660Z,22.20
2018-10-19T17:58:57.951Z,20.87
2018-10-19T18:01:27.070Z,19.30
2018-10-19T18:03:57.495Z,18.80
2018-10-19T18:06:28.100Z,21.87
2018-10-19T18:08:57.585Z,21.00
2018-10-19T18:11:26.740Z,20.27
2018-10-19T18:13:56.349Z,20.80
2018-10-19T18:16:25.672Z,21.50
2018-10-19T18:18:54.997Z,21.40
2018-10-19T18:21:24.213Z,21.00
2018-10-19T18:23:53.403Z,21.90
2018-10-19T18:26:22.755Z,20.60
2018-10-19T18:28:51.979Z,22.57
2018-10-19T18:31:21.167Z,21.70
2018-10-19T18:33:50.550Z,22.33
2018-10-19T18:36:19.758Z,21.00
2018-10-19T18:38:49.013Z,22.32
2018-10-19T18:41:18.209Z,21.80
2018-10-19T18:43:47.428Z,19.70
2018-10-19T18:46:16.815Z,21.40
2018-10-19T18:48:46.035Z,20.93
2018-10-19T18:51:17.649Z,21.97
2018-10-19T18:53:46.858Z,20.70
2018-10-19T18:56:16.194Z,21.13
2018-10-19T18:58:45.380Z,20.87
2018-10-19T19:01:15.193Z,21.20
2018-10-19T19:03:44.406Z,21.50
2018-10-19T19:06:13.585Z,20.90
2018-10-19T19:08:42.816Z,20.68
2018-10-19T19:11:12.065Z,20.75
2018-10-19T19:13:49.221Z,21.60
2018-10-19T19:16:23.644Z,20.20
2018-10-19T19:18:52.903Z,20.50
2018-10-19T19:21:22.123Z,21.77
2018-10-19T19:23:56.459Z,19.57
2018-10-19T19:26:26.690Z,18.70
2018-10-19T19:28:56.369Z,20.08
2018-10-19T19:31:25.500Z,20.77
2018-10-19T19:33:59.948Z,20.10
2018-10-19T19:36:29.262Z,19.80
2018-10-19T19:38:58.452Z,20.70
2018-10-19T19:41:32.928Z,20.63
2018-10-19T19:44:02.224Z,21.02
2018-10-19T19:46:31.407Z,20.20
2018-10-19T19:49:06.009Z,19.70
2018-10-19T19:51:35.456Z,20.57
2018-10-19T19:54:04.987Z,21.50
2018-10-19T19:56:34.196Z,20.00
2018-10-19T19:59:03.477Z,19.90
2018-10-19T20:01:32.710Z,20.07
2018-10-19T20:04:03.299Z,20.70
2018-10-19T20:06:32.605Z,20.40
2018-10-19T20:09:01.946Z,21.03
2018-10-19T20:11:31.188Z,21.17
2018-10-19T20:14:00.385Z,21.40
2018-10-19T20:16:29.544Z,20.57
2018-10-19T20:18:58.729Z,20.10
2018-10-19T20:21:27.924Z,20.50
2018-10-19T20:23:57.176Z,20.03
2018-10-19T20:26:26.438Z,21.65
2018-10-19T20:28:55.652Z,19.93
2018-10-19T20:31:24.880Z,21.70
2018-10-19T20:33:54.056Z,21.53
2018-10-19T20:36:23.242Z,22.20
2018-10-19T20:38:52.431Z,22.47
2018-10-19T20:41:21.789Z,20.67
2018-10-19T20:43:50.916Z,22.60
2018-10-19T20:46:20.128Z,20.13
2018-10-19T20:48:49.423Z,22.50
2018-10-19T20:51:18.634Z,20.30
2018-10-19T20:53:47.859Z,21.23
2018-10-19T20:56:17.893Z,22.40
2018-10-19T20:58:47.074Z,20.57
2018-10-19T21:01:16.853Z,21.77
2018-10-19T21:03:46.030Z,22.10
2018-10-19T21:06:15.840Z,21.30
2018-10-19T21:08:45.153Z,21.73
2018-10-19T21:11:14.940Z,23.77
2018-10-19T21:13:44.092Z,22.47
2018-10-19T21:16:13.403Z,25.30
2018-10-19T21:18:42.544Z,21.90
2018-10-19T21:21:11.811Z,21.67
2018-10-19T21:23:41.034Z,24.30
2018-10-19T21:26:10.297Z,21.57
2018-10-19T21:28:39.468Z,21.37
2018-10-19T21:31:08.668Z,23.00
2018-10-19T21:33:37.931Z,23.20
2018-10-19T21:36:07.193Z,22.10
2018-10-19T21:38:36.431Z,24.20
2018-10-19T21:41:05.688Z,23.00
2018-10-19T21:43:34.909Z,25.73
2018-10-19T21:46:04.137Z,24.00
2018-10-19T21:48:33.359Z,23.03
2018-10-19T21:51:02.529Z,21.40
2018-10-19T21:53:31.820Z,21.33
2018-10-19T21:56:01.095Z,21.50
2018-10-19T21:58:30.429Z,21.37
2018-10-19T22:00:59.668Z,21.10
2018-10-19T22:03:28.943Z,22.20
2018-10-19T22:05:58.173Z,22.93
2018-10-19T22:08:27.618Z,23.07
2018-10-19T22:10:56.753Z,22.40
2018-10-19T22:13:25.946Z,21.67
2018-10-19T22:15:55.141Z,20.70
2018-10-19T22:18:24.428Z,21.80
2018-10-19T22:20:53.677Z,21.20
2018-10-19T22:23:23.049Z,21.90
2018-10-19T22:25:52.223Z,21.10
2018-10-19T22:28:21.480Z,21.60
2018-10-19T22:30:50.672Z,22.80
2018-10-19T22:33:19.870Z,23.20
2018-10-19T22:35:49.205Z,23.27
2018-10-19T22:38:18.931Z,21.80
2018-10-19T22:41:14.650Z,21.77
2018-10-19T22:43:44.007Z,22.80
2018-10-19T22:46:13.912Z,21.30
2018-10-19T22:48:43.612Z,22.25
2018-10-19T22:51:12.903Z,21.43
2018-10-19T22:53:42.670Z,21.70
2018-10-19T22:56:11.992Z,23.03
2018-10-19T22:58:41.405Z,22.63
2018-10-19T23:01:10.642Z,23.53
2018-10-19T23:03:39.841Z,22.97
2018-10-19T23:06:09.083Z,22.23
2018-10-19T23:08:38.304Z,21.30
2018-10-19T23:11:07.566Z,22.03
2018-10-19T23:13:36.781Z,22.27
2018-10-19T23:16:06.499Z,22.27
2018-10-19T23:18:35.708Z,24.03
2018-10-19T23:21:05.100Z,22.00
2018-10-19T23:23:34.388Z,21.30
2018-10-19T23:26:03.952Z,20.90
2018-10-19T23:28:33.223Z,21.93
2018-10-19T23:31:02.546Z,21.47
2018-10-19T23:33:31.679Z,22.63
2018-10-19T23:36:01.308Z,21.47
2018-10-19T23:38:30.521Z,21.43
2018-10-19T23:40:59.756Z,21.47
2018-10-19T23:43:28.911Z,20.53
2018-10-19T23:45:58.158Z,21.33
2018-10-19T23:48:27.404Z,20.87
2018-10-19T23:50:56.876Z,22.20
2018-10-19T23:53:26.311Z,22.40
2018-10-19T23:55:55.505Z,20.43
2018-10-19T23:58:24.815Z,24.67
